Time;durP1;ratioP1;P1;durP2;ratioP2;P2;SDS_P1;SDS_P2;PMS_P1;PMS_P2;Temp;Humidity;BMP_temperature;BMP_pressure;BME280_temperature;BME280_humidity;BME280_pressure;Samples;Min_cycle;Max_cycle;Signal;HPM_P1;HPM_P2
2022/01/03 00:00:37;;;;;;;;;3.00;3.00;11.50;99.90;;;;;;4989690;28;11604;-53
2022/01/03 00:03:10;;;;;;;;;3.00;3.00;11.50;99.90;;;;;;4991470;28;11535;-52
2022/01/03 00:05:44;;;;;;;;;3.75;3.75;11.60;99.90;;;;;;4992364;28;11608;-51
2022/01/03 00:08:15;;;;;;;;;3.00;3.00;11.60;99.90;;;;;;4992261;28;11544;-50
2022/01/03 00:10:48;;;;;;;;;6.00;6.00;11.60;99.90;;;;;;5006062;28;11561;-52
2022/01/03 00:13:21;;;;;;;;;2.25;2.25;11.60;99.90;;;;;;4991769;28;11531;-47
2022/01/03 00:15:55;;;;;;;;;4.00;4.00;11.60;99.90;;;;;;4990935;28;11532;-56
2022/01/03 00:18:27;;;;;;;;;3.00;3.00;11.60;99.90;;;;;;5015494;28;11647;-47
2022/01/03 00:21:00;;;;;;;;;3.00;3.00;11.70;99.90;;;;;;4995725;28;11545;-48
2022/01/03 00:23:36;;;;;;;;;3.25;3.25;11.70;99.90;;;;;;4996112;28;11488;-50
2022/01/03 00:26:09;;;;;;;;;3.75;3.75;11.70;99.90;;;;;;5009036;28;11533;-53
2022/01/03 00:28:46;;;;;;;;;3.75;3.75;11.70;99.90;;;;;;5014621;28;11613;-50
2022/01/03 00:31:19;;;;;;;;;2.25;2.25;11.70;99.90;;;;;;5012783;28;11501;-58
2022/01/03 00:33:51;;;;;;;;;1.50;1.50;11.70;99.90;;;;;;5005449;28;11507;-54
2022/01/03 00:36:22;;;;;;;;;2.75;2.75;11.70;99.90;;;;;;5004031;28;11438;-51
2022/01/03 00:38:55;;;;;;;;;1.25;1.25;11.70;99.90;;;;;;5018657;28;12273;-53
2022/01/03 00:41:26;;;;;;;;;2.00;2.00;11.70;99.90;;;;;;5017111;28;11439;-48
2022/01/03 00:43:57;;;;;;;;;1.75;1.75;11.80;99.90;;;;;;4999136;28;12221;-50
2022/01/03 00:46:29;;;;;;;;;1.00;1.00;11.80;99.90;;;;;;5000493;28;11420;-53
2022/01/03 00:49:03;;;;;;;;;2.00;2.00;11.80;99.90;;;;;;4999232;28;11592;-54
2022/01/03 00:51:35;;;;;;;;;2.00;2.00;11.80;99.90;;;;;;5000181;28;11435;-53
2022/01/03 00:54:06;;;;;;;;;2.00;2.00;11.80;99.90;;;;;;4997800;28;11557;-52
2022/01/03 00:56:44;;;;;;;;;3.00;3.00;11.80;99.90;;;;;;5017925;28;11456;-54
2022/01/03 00:59:38;;;;;;;;;1.00;1.00;11.80;99.90;;;;;;5000982;28;11434;-53
2022/01/03 01:02:17;;;;;;;;;0.25;0.25;11.80;99.90;;;;;;4995081;28;11463;-53
2022/01/03 01:04:50;;;;;;;;;1.75;1.75;11.80;99.90;;;;;;5003478;28;11412;-53
2022/01/03 01:07:25;;;;;;;;;1.25;1.25;11.80;99.90;;;;;;4996215;28;11442;-54
2022/01/03 01:09:58;;;;;;;;;2.00;2.00;11.80;99.90;;;;;;5001854;28;11477;-56
2022/01/03 01:12:30;;;;;;;;;1.25;1.25;11.80;99.90;;;;;;4989027;28;11482;-53
2022/01/03 01:15:01;;;;;;;;;3.00;1.50;11.80;99.90;;;;;;5004017;28;11523;-52
2022/01/03 01:17:34;;;;;;;;;1.25;1.25;11.80;99.90;;;;;;5001291;28;11936;-53
2022/01/03 01:20:06;;;;;;;;;2.25;2.25;11.80;99.90;;;;;;5017101;28;11505;-54
2022/01/03 01:22:36;;;;;;;;;0.75;0.75;11.80;99.90;;;;;;5016493;28;11666;-49
2022/01/03 01:27:52;;;;;;;;;1.25;1.25;11.80;99.90;;;;;;5013134;28;11490;-52
2022/01/03 01:30:27;;;;;;;;;0.00;0.00;11.80;99.90;;;;;;4994591;28;11505;-49
2022/01/03 01:32:59;;;;;;;;;0.25;0.25;11.70;99.90;;;;;;4997470;28;11522;-51
2022/01/03 01:35:53;;;;;;;;;2.50;2.50;11.70;99.90;;;;;;5009384;28;11610;-52
2022/01/03 01:38:33;;;;;;;;;1.50;1.50;11.70;99.90;;;;;;5010146;28;11505;-53
2022/01/03 01:41:08;;;;;;;;;0.25;0.25;11.70;99.90;;;;;;5007871;28;11507;-52
2022/01/03 01:43:50;;;;;;;;;1.50;1.50;11.70;99.90;;;;;;5012850;28;11480;-55
2022/01/03 01:46:24;;;;;;;;;2.00;2.00;11.70;99.90;;;;;;5003857;28;11641;-50
2022/01/03 01:49:05;;;;;;;;;1.25;1.25;11.70;99.90;;;;;;4982440;28;11474;-54
2022/01/03 01:51:38;;;;;;;;;2.00;2.00;11.70;99.90;;;;;;4974442;28;11485;-54
2022/01/03 01:54:15;;;;;;;;;1.75;1.75;11.70;99.90;;;;;;4998320;28;11490;-56
2022/01/03 01:57:07;;;;;;;;;4.00;3.50;11.60;99.90;;;;;;5014200;28;11492;-59
2022/01/03 01:59:55;;;;;;;;;3.50;3.50;11.60;99.90;;;;;;5010403;28;11495;-52
2022/01/03 02:02:44;;;;;;;;;4.00;3.25;11.60;99.90;;;;;;5016341;28;11459;-52
2022/01/03 02:05:25;;;;;;;;;4.25;4.25;11.60;99.90;;;;;;4994799;28;11553;-54
2022/01/03 02:08:07;;;;;;;;;3.50;3.50;11.60;99.90;;;;;;5009122;28;11520;-54
2022/01/03 02:10:56;;;;;;;;;4.75;4.75;11.60;99.90;;;;;;4995796;28;11560;-54
2022/01/03 02:13:27;;;;;;;;;7.75;7.75;11.50;99.90;;;;;;4990626;28;11521;-53
2022/01/03 02:16:03;;;;;;;;;8.25;8.25;11.50;99.90;;;;;;4998415;28;11472;-54
2022/01/03 02:18:49;;;;;;;;;8.25;8.25;11.50;99.90;;;;;;5001204;28;11588;-53
2022/01/03 02:21:21;;;;;;;;;11.00;11.00;11.50;99.90;;;;;;4996131;28;11933;-53
2022/01/03 02:23:53;;;;;;;;;8.75;8.75;11.50;99.90;;;;;;4996529;28;11572;-54
2022/01/03 02:26:24;;;;;;;;;8.75;8.75;11.50;99.90;;;;;;4977894;28;11591;-53
2022/01/03 02:28:55;;;;;;;;;8.50;8.50;11.40;99.90;;;;;;4998880;28;11588;-54
2022/01/03 02:31:28;;;;;;;;;8.25;8.25;11.50;99.90;;;;;;5011937;28;11582;-55
2022/01/03 02:34:03;;;;;;;;;8.75;8.75;11.50;99.90;;;;;;4989345;28;11480;-54
2022/01/03 02:36:35;;;;;;;;;11.75;11.75;11.40;99.90;;;;;;4992459;28;12263;-55
2022/01/03 02:39:09;;;;;;;;;10.75;10.75;11.40;99.90;;;;;;4999434;28;11542;-54
2022/01/03 02:41:40;;;;;;;;;9.00;9.00;11.30;99.90;;;;;;4993893;28;11528;-46
2022/01/03 02:44:10;;;;;;;;;12.75;11.00;11.30;99.90;;;;;;5014633;28;11524;-50
2022/01/03 02:46:45;;;;;;;;;12.25;12.25;11.40;99.90;;;;;;5012138;28;11562;-50
2022/01/03 02:49:16;;;;;;;;;12.75;10.75;11.30;99.90;;;;;;5010042;28;12228;-46
2022/01/03 02:51:47;;;;;;;;;9.50;9.50;11.30;99.90;;;;;;5011373;28;11512;-55
2022/01/03 02:54:19;;;;;;;;;10.25;10.25;11.30;99.90;;;;;;4994638;28;13855;-52
2022/01/03 02:56:50;;;;;;;;;12.00;12.00;11.30;99.90;;;;;;4995616;28;11510;-51
2022/01/03 02:59:22;;;;;;;;;11.25;10.50;11.30;99.90;;;;;;4980705;28;11670;-49
2022/01/03 03:01:53;;;;;;;;;12.50;12.50;11.20;99.90;;;;;;5008718;28;11589;-46
2022/01/03 03:04:24;;;;;;;;;15.00;15.00;11.30;99.90;;;;;;5009007;28;12330;-45
2022/01/03 03:06:55;;;;;;;;;13.75;13.75;11.20;99.90;;;;;;5004679;28;11529;-43
2022/01/03 03:09:26;;;;;;;;;15.50;15.50;11.20;99.90;;;;;;5017028;28;12585;-46
2022/01/03 03:11:58;;;;;;;;;16.50;16.50;11.20;99.90;;;;;;4993778;28;11563;-47
2022/01/03 03:14:30;;;;;;;;;14.50;14.50;11.20;99.90;;;;;;4992013;28;11588;-45
2022/01/03 03:17:01;;;;;;;;;18.00;18.00;11.20;99.90;;;;;;5006828;28;11587;-50
2022/01/03 03:19:34;;;;;;;;;18.75;18.75;11.10;99.90;;;;;;4995989;28;11600;-49
2022/01/03 03:22:07;;;;;;;;;19.00;19.00;11.10;99.90;;;;;;4995268;28;11580;-50
2022/01/03 03:24:39;;;;;;;;;15.25;14.00;11.00;99.90;;;;;;4982657;28;11650;-46
2022/01/03 03:27:11;;;;;;;;;11.75;11.50;11.00;99.90;;;;;;5015206;28;11572;-51
2022/01/03 03:29:47;;;;;;;;;14.50;14.50;11.00;99.90;;;;;;4997154;28;11535;-49
2022/01/03 03:32:19;;;;;;;;;13.75;13.75;11.00;99.90;;;;;;4993068;28;11550;-45
2022/01/03 03:34:50;;;;;;;;;16.00;15.00;11.00;99.90;;;;;;5012410;28;12961;-52
2022/01/03 03:37:22;;;;;;;;;16.50;16.50;11.00;99.90;;;;;;5007641;28;11527;-45
2022/01/03 03:39:53;;;;;;;;;13.00;13.00;11.00;99.90;;;;;;5008524;28;11513;-46
2022/01/03 03:42:25;;;;;;;;;19.75;17.25;11.00;99.90;;;;;;4993564;28;11504;-50
2022/01/03 03:44:58;;;;;;;;;20.00;20.00;11.00;99.90;;;;;;5006616;28;11531;-48
2022/01/03 03:47:28;;;;;;;;;22.75;22.75;10.90;99.90;;;;;;5012800;28;12282;-49
2022/01/03 03:50:00;;;;;;;;;24.50;24.50;10.90;99.90;;;;;;5011744;28;11571;-48
2022/01/03 03:52:32;;;;;;;;;22.50;22.50;10.90;99.90;;;;;;5010713;28;11762;-48
2022/01/03 03:55:06;;;;;;;;;21.75;21.75;10.90;99.90;;;;;;5003183;28;12176;-45
2022/01/03 03:57:37;;;;;;;;;24.25;24.25;10.80;99.90;;;;;;4989663;28;11571;-47
2022/01/03 04:00:12;;;;;;;;;24.00;24.00;10.80;99.90;;;;;;5006299;28;11562;-54
2022/01/03 04:02:48;;;;;;;;;22.25;22.25;10.80;99.90;;;;;;5005766;28;11558;-53
2022/01/03 04:05:19;;;;;;;;;23.25;23.25;10.70;99.90;;;;;;5004672;28;11551;-53
2022/01/03 04:07:53;;;;;;;;;20.75;20.75;10.70;99.90;;;;;;4992097;28;11558;-51
2022/01/03 04:10:25;;;;;;;;;21.00;21.00;10.70;99.90;;;;;;5001520;28;11571;-50
2022/01/03 04:12:58;;;;;;;;;17.75;17.75;10.70;99.90;;;;;;4994121;28;12261;-52
2022/01/03 04:15:30;;;;;;;;;20.25;20.25;10.70;99.90;;;;;;4993755;28;11536;-48
2022/01/03 04:18:01;;;;;;;;;24.00;24.00;10.70;99.90;;;;;;4995938;28;12135;-52
2022/01/03 04:20:33;;;;;;;;;25.00;25.00;10.60;99.90;;;;;;5010962;28;11695;-51
2022/01/03 04:23:05;;;;;;;;;26.25;26.25;10.60;99.90;;;;;;4996512;28;11559;-54
2022/01/03 04:25:35;;;;;;;;;26.00;24.50;10.60;99.90;;;;;;4996673;28;11514;-53
2022/01/03 04:28:07;;;;;;;;;21.75;20.00;10.60;99.90;;;;;;5012173;28;11565;-54
2022/01/03 04:30:44;;;;;;;;;19.25;19.25;10.50;99.90;;;;;;4995292;28;11564;-54
2022/01/03 04:33:14;;;;;;;;;20.50;20.50;10.50;99.90;;;;;;4999883;28;11594;-54
2022/01/03 04:35:45;;;;;;;;;27.00;27.00;10.50;99.90;;;;;;5007750;28;11601;-55
2022/01/03 04:38:16;;;;;;;;;28.00;28.00;10.50;99.90;;;;;;5013055;28;11571;-52
2022/01/03 04:40:47;;;;;;;;;28.00;23.25;10.50;99.90;;;;;;4994928;28;11573;-52
2022/01/03 04:43:18;;;;;;;;;29.25;29.25;10.50;99.90;;;;;;4994680;28;11529;-52
2022/01/03 04:45:49;;;;;;;;;26.75;24.25;10.40;99.90;;;;;;4992715;28;12296;-54
2022/01/03 04:48:21;;;;;;;;;29.00;28.25;10.30;99.90;;;;;;5012019;28;12705;-51
2022/01/03 04:50:53;;;;;;;;;22.50;22.50;10.30;99.90;;;;;;5011396;28;11599;-53
2022/01/03 04:53:27;;;;;;;;;24.00;24.00;10.30;99.90;;;;;;4992363;28;11538;-49
2022/01/03 04:55:57;;;;;;;;;21.75;21.75;10.30;99.90;;;;;;4975874;28;12684;-50
2022/01/03 04:58:28;;;;;;;;;20.75;20.75;10.30;99.90;;;;;;5013929;28;12695;-52
2022/01/03 05:00:59;;;;;;;;;22.00;20.50;10.30;99.90;;;;;;4994711;28;12205;-51
2022/01/03 05:03:31;;;;;;;;;24.75;24.75;10.30;99.90;;;;;;5010855;28;11584;-50
2022/01/03 05:06:05;;;;;;;;;20.25;20.25;10.30;99.90;;;;;;4997595;28;11566;-52
2022/01/03 05:08:37;;;;;;;;;20.75;20.75;10.30;99.90;;;;;;4988644;28;11542;-53
2022/01/03 05:11:08;;;;;;;;;21.25;21.25;10.20;99.90;;;;;;4974853;28;11630;-52
2022/01/03 05:13:44;;;;;;;;;22.75;22.50;10.20;99.90;;;;;;4971511;28;11608;-47
2022/01/03 05:16:16;;;;;;;;;23.00;23.00;10.10;99.90;;;;;;4972309;28;11625;-52
2022/01/03 05:18:47;;;;;;;;;19.75;18.25;10.10;99.90;;;;;;4984178;28;11611;-51
2022/01/03 05:21:17;;;;;;;;;28.00;27.25;10.10;99.90;;;;;;4984543;28;11640;-50
2022/01/03 05:23:51;;;;;;;;;23.50;21.00;10.10;99.90;;;;;;4956923;28;11776;-54
2022/01/03 05:26:23;;;;;;;;;19.50;19.50;10.10;99.90;;;;;;4990126;28;11598;-52
2022/01/03 05:28:56;;;;;;;;;24.33;24.33;10.00;99.90;;;;;;4992186;28;11628;-53
2022/01/03 05:31:27;;;;;;;;;21.75;21.75;10.10;99.90;;;;;;4976697;28;11586;-51
2022/01/03 05:34:00;;;;;;;;;24.25;24.25;10.00;99.90;;;;;;4970583;28;11790;-53
2022/01/03 05:36:30;;;;;;;;;27.00;26.75;10.10;99.90;;;;;;4972039;28;8846;-53
2022/01/03 05:39:01;;;;;;;;;31.33;29.67;10.00;99.90;;;;;;4982783;28;12462;-51
2022/01/03 05:41:32;;;;;;;;;31.33;30.67;10.00;99.90;;;;;;4992767;28;11669;-50
2022/01/03 05:44:05;;;;;;;;;35.33;34.67;10.00;99.90;;;;;;4990584;28;11598;-53
2022/01/03 05:46:37;;;;;;;;;41.67;37.00;9.90;99.90;;;;;;4990361;28;8875;-50
2022/01/03 05:49:11;;;;;;;;;32.00;31.67;9.90;99.90;;;;;;4993492;28;8866;-49
2022/01/03 05:51:43;;;;;;;;;38.67;35.67;9.90;99.90;;;;;;4966983;28;8866;-53
2022/01/03 05:54:13;;;;;;;;;36.67;34.00;9.90;99.90;;;;;;4977954;28;8897;-51
2022/01/03 05:56:44;;;;;;;;;32.67;32.00;9.80;99.90;;;;;;4971646;28;8859;-50
2022/01/03 05:59:14;;;;;;;;;31.00;28.33;9.80;99.90;;;;;;4980071;28;8846;-52
2022/01/03 06:01:45;;;;;;;;;28.33;28.33;9.80;99.90;;;;;;4988394;28;8855;-53
2022/01/03 06:04:22;;;;;;;;;30.50;26.75;9.80;99.90;;;;;;4978881;28;11605;-55
2022/01/03 06:07:07;;;;;;;;;25.67;25.67;9.80;99.90;;;;;;4987871;28;11617;-49
2022/01/03 06:09:48;;;;;;;;;25.75;25.25;9.80;99.90;;;;;;4968597;28;11611;-51
2022/01/03 06:12:20;;;;;;;;;31.33;30.67;9.80;99.90;;;;;;4991624;28;11613;-53
2022/01/03 06:14:55;;;;;;;;;25.00;25.00;9.80;99.90;;;;;;5009058;28;8872;-53
2022/01/03 06:17:26;;;;;;;;;23.25;21.75;9.80;99.90;;;;;;4993591;28;11640;-53
2022/01/03 06:19:57;;;;;;;;;22.25;22.25;9.80;99.90;;;;;;4978426;28;11607;-52
2022/01/03 06:22:28;;;;;;;;;28.00;28.00;9.80;99.90;;;;;;5007420;28;11589;-54
2022/01/03 06:25:03;;;;;;;;;25.33;25.33;9.80;99.90;;;;;;5009550;28;9574;-53
2022/01/03 06:27:33;;;;;;;;;27.75;27.75;9.80;99.90;;;;;;5007484;28;8883;-52
2022/01/03 06:30:07;;;;;;;;;28.50;28.50;9.80;99.90;;;;;;4995703;28;11647;-54
2022/01/03 06:32:40;;;;;;;;;29.00;27.75;9.70;99.90;;;;;;4980381;28;11611;-52
2022/01/03 06:35:13;;;;;;;;;23.00;20.25;9.80;99.90;;;;;;4999191;28;11590;-52
2022/01/03 06:37:45;;;;;;;;;24.00;22.00;9.70;99.90;;;;;;4997156;28;12333;-53
2022/01/03 06:40:21;;;;;;;;;19.33;17.33;9.70;99.90;;;;;;4990923;28;11733;-52
2022/01/03 06:42:52;;;;;;;;;22.50;19.75;9.70;99.90;;;;;;4959077;28;8856;-54
2022/01/03 06:45:25;;;;;;;;;24.25;24.25;9.80;99.90;;;;;;5011176;28;11616;-54
2022/01/03 06:47:59;;;;;;;;;25.00;25.00;9.70;99.90;;;;;;4998137;28;11634;-51
2022/01/03 06:50:36;;;;;;;;;19.50;19.50;9.70;99.90;;;;;;5007222;28;11643;-55
2022/01/03 06:53:06;;;;;;;;;25.25;25.25;9.70;99.90;;;;;;4974931;28;11600;-56
2022/01/03 06:55:39;;;;;;;;;23.25;23.25;9.70;99.90;;;;;;4981159;28;12351;-52
2022/01/03 06:58:13;;;;;;;;;24.50;24.50;9.70;99.90;;;;;;4993929;28;12308;-57
2022/01/03 07:00:44;;;;;;;;;25.00;25.00;9.70;99.90;;;;;;4978369;28;11626;-54
2022/01/03 07:03:16;;;;;;;;;25.75;25.75;9.70;99.90;;;;;;5006674;28;11591;-58
2022/01/03 07:05:46;;;;;;;;;23.75;22.25;9.70;99.90;;;;;;4995413;28;11674;-58
2022/01/03 07:08:20;;;;;;;;;18.75;18.75;9.70;99.90;;;;;;4979381;28;12299;-55
2022/01/03 07:10:51;;;;;;;;;21.50;21.50;9.70;99.90;;;;;;4976123;28;11626;-56
2022/01/03 07:13:31;;;;;;;;;19.25;19.25;9.70;99.90;;;;;;4993040;28;11758;-52
2022/01/03 07:18:56;;;;;;;;;18.75;18.75;9.70;99.90;;;;;;4993895;28;11620;-50
2022/01/03 07:21:32;;;;;;;;;18.25;16.75;9.70;99.90;;;;;;4997849;28;12443;-54
2022/01/03 07:24:03;;;;;;;;;14.50;14.50;9.70;99.90;;;;;;4993621;28;12407;-51
2022/01/03 07:26:33;;;;;;;;;17.00;17.00;9.80;99.90;;;;;;5009555;28;11954;-54
2022/01/03 07:29:04;;;;;;;;;15.50;15.50;9.80;99.90;;;;;;4997476;28;11807;-53
2022/01/03 07:31:35;;;;;;;;;13.75;13.75;9.80;99.90;;;;;;4993827;28;11587;-54
2022/01/03 07:34:07;;;;;;;;;14.25;14.25;9.70;99.90;;;;;;4987813;28;11754;-56
2022/01/03 07:36:37;;;;;;;;;15.00;15.00;9.80;99.90;;;;;;4979392;28;12625;-55
2022/01/03 07:39:08;;;;;;;;;13.25;13.25;9.70;99.90;;;;;;4980287;28;11596;-53
2022/01/03 07:41:40;;;;;;;;;16.75;12.75;9.70;99.90;;;;;;4997235;28;11564;-50
2022/01/03 07:44:13;;;;;;;;;14.75;14.75;9.70;99.90;;;;;;4977265;28;11720;-53
2022/01/03 07:46:44;;;;;;;;;15.25;15.25;9.80;99.90;;;;;;4987426;28;11601;-55
2022/01/03 07:49:15;;;;;;;;;13.25;13.25;9.80;99.90;;;;;;5006024;28;12316;-53
2022/01/03 07:51:45;;;;;;;;;13.25;13.00;9.70;99.90;;;;;;4994823;28;11589;-51
2022/01/03 07:54:16;;;;;;;;;12.50;12.50;9.80;99.90;;;;;;4995736;28;11617;-53
2022/01/03 07:56:46;;;;;;;;;15.00;15.00;9.80;99.90;;;;;;4996822;28;11607;-53
2022/01/03 07:59:17;;;;;;;;;16.25;16.25;9.80;99.90;;;;;;5007679;28;11618;-53
2022/01/03 08:01:48;;;;;;;;;14.50;14.50;9.80;99.90;;;;;;4987562;28;12364;-49
2022/01/03 08:04:20;;;;;;;;;16.75;16.75;9.80;99.90;;;;;;4995228;28;11594;-52
2022/01/03 08:06:50;;;;;;;;;14.75;14.75;9.80;99.90;;;;;;4992111;28;11761;-53
2022/01/03 08:09:22;;;;;;;;;14.25;14.25;9.90;99.90;;;;;;4995044;28;11748;-52
2022/01/03 08:11:53;;;;;;;;;13.25;13.25;9.80;99.90;;;;;;4993647;28;11698;-52
2022/01/03 08:14:24;;;;;;;;;15.50;13.25;9.80;99.90;;;;;;4987932;28;11603;-52
2022/01/03 08:16:55;;;;;;;;;14.50;14.50;9.80;99.90;;;;;;4989676;28;11740;-52
2022/01/03 08:19:25;;;;;;;;;16.00;16.00;9.90;99.90;;;;;;4992208;28;12182;-51
2022/01/03 08:21:55;;;;;;;;;13.50;13.50;9.90;99.90;;;;;;4994431;28;11598;-51
2022/01/03 08:24:26;;;;;;;;;21.25;21.25;9.90;99.90;;;;;;4996991;28;11600;-49
2022/01/03 08:26:56;;;;;;;;;19.00;19.00;9.90;99.90;;;;;;4974897;28;11628;-52
2022/01/03 08:29:26;;;;;;;;;21.50;21.50;9.90;99.90;;;;;;4993201;28;12344;-52
2022/01/03 08:31:57;;;;;;;;;17.75;16.50;9.90;99.90;;;;;;4992206;28;11661;-54
2022/01/03 08:34:27;;;;;;;;;15.25;15.25;9.90;99.90;;;;;;4991878;28;11593;-50
2022/01/03 08:37:00;;;;;;;;;13.00;13.00;9.90;99.90;;;;;;4991243;28;11590;-47
2022/01/03 08:39:32;;;;;;;;;12.50;12.50;9.90;99.90;;;;;;4994115;28;11597;-52
2022/01/03 08:42:04;;;;;;;;;14.25;14.25;9.90;99.90;;;;;;4990848;28;11583;-52
2022/01/03 08:44:34;;;;;;;;;12.50;11.75;9.90;99.90;;;;;;5004815;28;11604;-52
2022/01/03 08:47:06;;;;;;;;;11.75;10.75;9.90;99.90;;;;;;4988928;28;11619;-51
2022/01/03 08:49:37;;;;;;;;;12.25;12.25;9.90;99.90;;;;;;4993285;28;11764;-52
2022/01/03 08:52:06;;;;;;;;;14.00;13.50;9.90;99.90;;;;;;4992959;28;11588;-52
2022/01/03 08:54:40;;;;;;;;;10.00;10.00;9.90;99.90;;;;;;4992797;28;11630;-52
2022/01/03 08:57:15;;;;;;;;;12.75;12.75;9.90;99.90;;;;;;4990052;28;12359;-53
2022/01/03 08:59:46;;;;;;;;;14.00;13.50;9.90;99.90;;;;;;4997061;28;11619;-53
2022/01/03 09:02:17;;;;;;;;;15.25;15.25;9.90;99.90;;;;;;4996238;28;12672;-53
2022/01/03 09:04:48;;;;;;;;;12.25;12.25;9.90;99.90;;;;;;5000996;28;11605;-50
2022/01/03 09:07:18;;;;;;;;;15.75;15.75;9.90;99.90;;;;;;4999403;28;11552;-53
2022/01/03 09:09:50;;;;;;;;;8.75;8.75;9.90;99.90;;;;;;4996791;28;11592;-52
2022/01/03 09:12:22;;;;;;;;;12.00;12.00;9.90;99.90;;;;;;4996057;28;11606;-54
2022/01/03 09:14:54;;;;;;;;;14.25;14.25;9.90;99.90;;;;;;4996962;28;11581;-52
2022/01/03 09:17:24;;;;;;;;;14.00;14.00;9.90;99.90;;;;;;5013808;28;11577;-53
2022/01/03 09:19:55;;;;;;;;;17.25;15.00;9.90;99.90;;;;;;5011651;28;11573;-53
2022/01/03 09:22:33;;;;;;;;;8.25;8.25;9.90;99.90;;;;;;4999547;28;11573;-52
2022/01/03 09:30:24;;;;;;;;;13.50;13.50;10.00;99.90;;;;;;5010784;28;11597;-49
2022/01/03 09:32:55;;;;;;;;;11.75;10.00;10.00;99.90;;;;;;4995923;28;11599;-53
2022/01/03 09:35:26;;;;;;;;;11.50;11.50;10.00;99.90;;;;;;4993365;28;11752;-52
2022/01/03 09:37:56;;;;;;;;;13.75;12.00;10.00;99.90;;;;;;4996286;28;11576;-52
2022/01/03 09:40:28;;;;;;;;;10.00;10.00;10.00;99.90;;;;;;4997180;28;12344;-52
2022/01/03 09:43:00;;;;;;;;;11.00;11.00;10.00;99.90;;;;;;4995668;28;11722;-51
2022/01/03 09:45:32;;;;;;;;;9.00;9.00;10.00;99.90;;;;;;4996309;28;11512;-52
2022/01/03 09:48:07;;;;;;;;;6.75;6.75;10.00;99.90;;;;;;5011707;28;11524;-52
2022/01/03 09:50:37;;;;;;;;;8.50;8.50;10.00;99.90;;;;;;4997776;28;11551;-51
2022/01/03 09:53:09;;;;;;;;;7.00;7.00;10.00;99.90;;;;;;4995632;28;11584;-50
2022/01/03 09:55:44;;;;;;;;;5.50;5.50;10.00;99.90;;;;;;4994933;28;12268;-51
2022/01/03 09:58:15;;;;;;;;;7.25;7.25;10.00;99.90;;;;;;4994993;28;12334;-51
2022/01/03 10:00:47;;;;;;;;;10.25;10.25;10.00;99.90;;;;;;5010528;28;11583;-53
2022/01/03 10:03:20;;;;;;;;;19.00;17.25;10.00;99.90;;;;;;4996507;28;11973;-52
2022/01/03 10:05:55;;;;;;;;;10.00;10.00;10.10;99.90;;;;;;4999893;28;11623;-52
2022/01/03 10:08:28;;;;;;;;;7.50;5.50;10.10;99.90;;;;;;4997170;28;11630;-53
2022/01/03 10:10:59;;;;;;;;;8.25;8.25;10.10;99.90;;;;;;5014449;28;11486;-52
2022/01/03 10:13:30;;;;;;;;;9.00;9.00;10.00;99.90;;;;;;5013574;28;11464;-51
2022/01/03 10:16:01;;;;;;;;;5.75;5.75;10.00;99.90;;;;;;5012894;28;12110;-52
2022/01/03 10:18:33;;;;;;;;;9.25;6.50;10.00;99.90;;;;;;5017179;28;11499;-54
2022/01/03 10:21:08;;;;;;;;;5.25;5.25;10.00;99.90;;;;;;4993187;28;11532;-53
2022/01/03 10:23:57;;;;;;;;;5.50;5.50;10.00;99.90;;;;;;5016287;28;11586;-56
2022/01/03 10:26:28;;;;;;;;;10.75;7.25;10.00;99.90;;;;;;5014087;28;11538;-51
2022/01/03 10:29:31;;;;;;;;;7.25;7.25;10.00;99.90;;;;;;5018071;28;11543;-51
2022/01/03 10:32:05;;;;;;;;;6.00;6.00;10.00;99.90;;;;;;4948832;28;11484;-51
2022/01/03 10:34:36;;;;;;;;;7.25;7.25;10.00;99.90;;;;;;5013383;28;11501;-52
2022/01/03 10:37:12;;;;;;;;;7.25;5.00;10.00;99.90;;;;;;5000249;28;11517;-51
2022/01/03 10:39:44;;;;;;;;;9.75;9.75;10.00;99.90;;;;;;5011045;28;11486;-52
2022/01/03 10:42:17;;;;;;;;;6.75;6.75;9.90;99.90;;;;;;5014430;28;11488;-51
2022/01/03 10:44:48;;;;;;;;;9.00;9.00;10.00;99.90;;;;;;5011260;28;12274;-50
2022/01/03 10:47:34;;;;;;;;;9.00;9.00;10.00;99.90;;;;;;4992458;28;12183;-52
2022/01/03 10:50:19;;;;;;;;;9.75;9.75;9.90;99.90;;;;;;4997886;28;11559;-52
2022/01/03 10:52:51;;;;;;;;;9.00;9.00;10.00;99.90;;;;;;5016015;28;12181;-52
2022/01/03 10:55:33;;;;;;;;;10.00;10.00;10.00;99.90;;;;;;4998917;28;11515;-52
2022/01/03 10:58:08;;;;;;;;;10.25;10.25;9.90;99.90;;;;;;5014751;28;11520;-53
2022/01/03 11:00:44;;;;;;;;;9.50;9.50;9.90;99.90;;;;;;5013183;28;11597;-51
2022/01/03 11:03:41;;;;;;;;;10.75;10.75;9.90;99.90;;;;;;4978201;28;12260;-50
2022/01/03 11:11:58;;;;;;;;;9.75;9.75;9.90;99.90;;;;;;5013696;28;11518;-54
2022/01/03 11:14:39;;;;;;;;;9.25;8.00;9.90;99.90;;;;;;4996348;28;11673;-49
2022/01/03 11:17:30;;;;;;;;;9.00;7.25;9.90;99.90;;;;;;4998292;28;11504;-53
2022/01/03 11:20:00;;;;;;;;;9.00;9.00;9.90;99.90;;;;;;5012679;28;12460;-50
2022/01/03 11:22:40;;;;;;;;;3.50;3.50;9.90;99.90;;;;;;5015893;28;11530;-51
2022/01/03 11:25:14;;;;;;;;;9.50;7.00;9.90;99.90;;;;;;5014272;28;11505;-52
2022/01/03 11:27:46;;;;;;;;;6.25;6.25;9.90;99.90;;;;;;5009463;28;11484;-52
2022/01/03 11:30:20;;;;;;;;;5.00;5.00;9.90;99.90;;;;;;4980453;28;11472;-53
2022/01/03 11:32:51;;;;;;;;;3.50;3.50;9.90;99.90;;;;;;5014003;28;11474;-53
2022/01/03 11:35:22;;;;;;;;;9.50;7.75;9.90;99.90;;;;;;4999444;28;11478;-52
2022/01/03 11:37:54;;;;;;;;;8.50;8.50;9.90;99.90;;;;;;4995454;28;11679;-52
2022/01/03 11:40:26;;;;;;;;;10.00;9.00;9.80;99.90;;;;;;5013040;28;11514;-49
2022/01/03 11:42:57;;;;;;;;;6.25;6.25;9.80;99.90;;;;;;5012976;28;11530;-51
2022/01/03 11:45:29;;;;;;;;;9.00;9.00;9.80;99.90;;;;;;5015240;28;11487;-51
2022/01/03 11:48:01;;;;;;;;;7.25;7.25;9.80;99.90;;;;;;4993164;28;11519;-51
2022/01/03 11:50:33;;;;;;;;;7.00;7.00;9.80;99.90;;;;;;4999615;28;11455;-52
2022/01/03 11:53:08;;;;;;;;;9.25;9.25;9.90;99.90;;;;;;5011161;28;11674;-49
2022/01/03 11:55:42;;;;;;;;;9.50;7.75;9.80;99.90;;;;;;4992140;28;11528;-53
2022/01/03 11:58:28;;;;;;;;;9.00;9.00;9.80;99.90;;;;;;5000447;28;11614;-53
2022/01/03 12:03:59;;;;;;;;;10.25;7.75;9.80;99.90;;;;;;5011761;28;14263;-53
2022/01/03 12:06:35;;;;;;;;;5.00;5.00;9.80;99.90;;;;;;5013846;28;11523;-51
2022/01/03 12:09:18;;;;;;;;;10.25;10.25;9.80;99.90;;;;;;5008860;28;11560;-51
2022/01/03 12:11:53;;;;;;;;;17.50;14.00;9.90;99.90;;;;;;4997354;28;11491;-51
2022/01/03 12:14:38;;;;;;;;;20.00;20.00;9.80;99.90;;;;;;5011411;28;11551;-53
2022/01/03 12:17:14;;;;;;;;;20.50;17.50;9.90;99.90;;;;;;5006574;28;11516;-53
2022/01/03 12:19:48;;;;;;;;;18.00;18.00;9.80;99.90;;;;;;5010777;28;12275;-50
2022/01/03 12:22:23;;;;;;;;;19.00;19.00;9.80;99.90;;;;;;5012474;28;11527;-54
2022/01/03 12:24:55;;;;;;;;;14.00;14.00;9.80;99.90;;;;;;5010069;28;11533;-52
2022/01/03 12:27:30;;;;;;;;;18.75;16.00;9.80;99.90;;;;;;5009238;28;11527;-49
2022/01/03 12:30:06;;;;;;;;;12.50;12.50;9.80;99.90;;;;;;5009317;28;12260;-51
2022/01/03 12:33:06;;;;;;;;;14.50;12.75;9.80;99.90;;;;;;5008230;28;12281;-52
2022/01/03 12:35:40;;;;;;;;;13.50;13.25;9.80;99.90;;;;;;5017690;28;11543;-54
2022/01/03 12:38:15;;;;;;;;;12.25;12.25;9.80;99.90;;;;;;5015889;28;11480;-48
2022/01/03 12:40:53;;;;;;;;;11.50;11.50;9.80;99.90;;;;;;5015315;28;11582;-54
2022/01/03 12:43:46;;;;;;;;;9.00;9.00;9.80;99.90;;;;;;5003540;28;11572;-54
2022/01/03 12:46:19;;;;;;;;;9.00;9.00;9.80;99.90;;;;;;4997087;28;11497;-50
2022/01/03 12:48:55;;;;;;;;;6.00;6.00;9.80;99.90;;;;;;5019993;28;12295;-52
2022/01/03 12:51:36;;;;;;;;;6.25;6.25;9.80;99.90;;;;;;5015189;28;11521;-52
2022/01/03 12:54:07;;;;;;;;;4.00;4.00;9.70;99.90;;;;;;5020298;28;11433;-53
2022/01/03 12:56:37;;;;;;;;;7.25;7.25;9.80;99.90;;;;;;5012255;28;12198;-53
2022/01/03 12:59:15;;;;;;;;;6.75;6.75;9.80;99.90;;;;;;5018237;28;11522;-52
2022/01/03 13:01:49;;;;;;;;;7.75;7.75;9.70;99.90;;;;;;5015182;28;12663;-52
2022/01/03 13:04:21;;;;;;;;;6.50;6.50;9.80;99.90;;;;;;5019368;28;11628;-50
2022/01/03 13:06:52;;;;;;;;;5.00;5.00;9.70;99.90;;;;;;4999148;28;11663;-51
2022/01/03 13:09:25;;;;;;;;;5.00;5.00;9.70;99.90;;;;;;5015160;28;11481;-53
2022/01/03 13:11:59;;;;;;;;;5.00;5.00;9.70;99.90;;;;;;5015000;28;11497;-50
2022/01/03 13:14:30;;;;;;;;;6.00;6.00;9.70;99.90;;;;;;5011466;28;13006;-53
2022/01/03 13:17:02;;;;;;;;;6.75;6.75;9.70;99.90;;;;;;5016670;28;11446;-51
2022/01/03 13:19:37;;;;;;;;;6.75;6.75;9.70;99.90;;;;;;4999417;28;11660;-51
2022/01/03 13:22:14;;;;;;;;;6.75;6.75;9.70;99.90;;;;;;5018255;28;11525;-53
2022/01/03 13:24:46;;;;;;;;;6.75;6.75;9.70;99.90;;;;;;4999287;28;11517;-52
2022/01/03 13:27:22;;;;;;;;;6.00;6.00;9.70;99.90;;;;;;4995560;28;11505;-53
2022/01/03 13:29:57;;;;;;;;;7.75;5.25;9.70;99.90;;;;;;5017366;28;12269;-52
2022/01/03 13:32:30;;;;;;;;;5.25;5.25;9.70;99.90;;;;;;5015756;28;11598;-53